createdAt,value
2019-01-09T00:01:38.919Z,50.26
2019-01-09T00:04:09.252Z,49.54
2019-01-09T00:06:39.633Z,49.85
2019-01-09T00:09:13.163Z,50.05
2019-01-09T00:11:43.516Z,50.09
2019-01-09T00:14:13.848Z,50.33
2019-01-09T00:16:44.199Z,50.73
2019-01-09T00:19:14.586Z,50.69
2019-01-09T00:21:45.014Z,50.31
2019-01-09T00:24:15.420Z,50.85
2019-01-09T00:26:45.759Z,50.81
2019-01-09T00:29:16.332Z,49.97
2019-01-09T00:31:46.815Z,50.36
2019-01-09T00:34:17.264Z,50.62
2019-01-09T00:36:47.736Z,50.42
2019-01-09T00:39:18.152Z,50.39
2019-01-09T00:41:48.532Z,50.58
2019-01-09T00:44:18.915Z,50.47
2019-01-09T00:46:49.432Z,50.18
2019-01-09T00:49:19.779Z,49.77
2019-01-09T00:51:50.270Z,49.33
2019-01-09T00:54:20.613Z,49.48
2019-01-09T00:56:51.009Z,49.59
2019-01-09T00:59:21.584Z,49.37
2019-01-09T01:02:12.995Z,50.28
2019-01-09T01:05:18.499Z,50.92
2019-01-09T01:08:24.396Z,51.12
2019-01-09T01:11:19.229Z,51.30
2019-01-09T01:14:44.210Z,51.33
2019-01-09T01:17:50.814Z,51.27
2019-01-09T01:20:39.872Z,51.59
2019-01-09T01:23:34.685Z,52.02
2019-01-09T01:26:54.401Z,52.42
2019-01-09T01:30:13.221Z,52.04
2019-01-09T01:33:27.510Z,52.84
2019-01-09T01:36:26.981Z,53.22
2019-01-09T01:39:39.159Z,53.47
2019-01-09T01:42:59.228Z,53.93
2019-01-09T01:46:16.467Z,53.81
2019-01-09T01:49:13.486Z,54.15
2019-01-09T01:52:24.328Z,54.33
2019-01-09T01:55:47.473Z,54.04
2019-01-09T01:58:48.080Z,53.94
2019-01-09T02:01:50.861Z,54.02
2019-01-09T02:05:03.291Z,53.84
2019-01-09T02:08:00.210Z,53.34
2019-01-09T02:11:26.299Z,52.95
2019-01-09T02:14:38.624Z,53.04
2019-01-09T02:18:13.569Z,53.06
2019-01-09T02:21:16.728Z,53.06
2019-01-09T02:24:36.525Z,52.75
2019-01-09T02:27:40.372Z,52.60
2019-01-09T02:30:50.060Z,52.70
2019-01-09T02:33:20.467Z,52.01
2019-01-09T02:35:50.864Z,52.18
2019-01-09T02:38:21.239Z,51.86
2019-01-09T02:40:52.085Z,52.21
2019-01-09T02:43:22.432Z,51.98
2019-01-09T02:45:52.821Z,52.53
2019-01-09T02:48:23.178Z,52.49
2019-01-09T02:50:53.480Z,52.46
2019-01-09T02:53:23.847Z,52.17
2019-01-09T02:55:54.198Z,52.24
2019-01-09T02:58:24.536Z,52.10
2019-01-09T03:00:54.923Z,52.58
2019-01-09T03:03:25.283Z,52.33
2019-01-09T03:05:55.638Z,52.52
2019-01-09T03:08:26.082Z,52.67
2019-01-09T03:10:56.440Z,52.59
2019-01-09T03:13:26.772Z,52.56
2019-01-09T03:15:58.101Z,52.52
2019-01-09T03:18:28.458Z,52.34
2019-01-09T03:20:58.791Z,52.13
2019-01-09T03:23:29.130Z,52.17
2019-01-09T03:25:59.473Z,52.61
2019-01-09T03:28:29.803Z,52.95
2019-01-09T03:31:00.310Z,52.90
2019-01-09T03:33:30.687Z,52.66
2019-01-09T03:36:01.066Z,52.81
2019-01-09T03:38:31.476Z,52.90
2019-01-09T03:41:01.886Z,52.97
2019-01-09T03:43:32.262Z,52.71
2019-01-09T03:46:02.639Z,52.64
2019-01-09T03:48:33.040Z,52.72
2019-01-09T03:51:03.429Z,52.80
2019-01-09T03:53:33.779Z,52.67
2019-01-09T03:56:04.092Z,52.25
2019-01-09T03:58:34.466Z,52.31
2019-01-09T04:01:04.816Z,52.45
2019-01-09T04:03:35.139Z,52.64
2019-01-09T04:06:05.515Z,52.96
2019-01-09T04:08:35.938Z,52.47
2019-01-09T04:11:06.270Z,52.42
2019-01-09T04:13:36.627Z,52.12
2019-01-09T04:16:06.926Z,52.32
2019-01-09T04:18:37.224Z,51.95
2019-01-09T04:21:07.565Z,51.81
2019-01-09T04:23:37.893Z,52.67
2019-01-09T04:26:08.271Z,52.47
2019-01-09T04:28:38.886Z,52.39
2019-01-09T04:31:09.319Z,52.25
2019-01-09T04:33:39.641Z,52.58
2019-01-09T04:36:10.066Z,52.74
2019-01-09T04:38:40.424Z,53.04
2019-01-09T04:41:10.850Z,52.92
2019-01-09T04:43:41.212Z,52.67
2019-01-09T04:46:11.622Z,52.83
2019-01-09T04:48:41.962Z,52.77
2019-01-09T04:51:12.286Z,52.60
2019-01-09T04:53:43.900Z,52.44
2019-01-09T04:56:14.272Z,52.09
2019-01-09T04:58:44.573Z,52.02
2019-01-09T05:01:14.917Z,51.63
2019-01-09T05:03:45.249Z,51.49
2019-01-09T05:06:15.580Z,52.04
2019-01-09T05:08:45.925Z,51.44
2019-01-09T05:11:16.303Z,51.37
2019-01-09T05:13:46.673Z,51.54
2019-01-09T05:16:17.097Z,51.50
2019-01-09T05:18:47.462Z,52.39
2019-01-09T05:21:17.846Z,52.33
2019-01-09T05:23:48.206Z,53.13
2019-01-09T05:26:18.620Z,53.68
2019-01-09T05:28:48.983Z,53.66
2019-01-09T05:31:19.337Z,53.55
2019-01-09T05:33:49.666Z,53.15
2019-01-09T05:36:19.967Z,53.31
2019-01-09T05:38:50.321Z,53.04
2019-01-09T05:41:20.713Z,52.87
2019-01-09T05:43:51.050Z,52.66
2019-01-09T05:46:21.437Z,52.47
2019-01-09T05:48:53.488Z,52.46
2019-01-09T05:51:24.107Z,52.38
2019-01-09T05:53:54.444Z,52.13
2019-01-09T05:56:35.569Z,52.24
2019-01-09T05:59:23.022Z,52.44
2019-01-09T06:01:58.961Z,52.07
2019-01-09T06:04:29.303Z,52.23
2019-01-09T06:07:03.532Z,52.29
2019-01-09T06:09:33.890Z,52.03
2019-01-09T06:12:04.506Z,52.38
2019-01-09T06:14:50.351Z,52.66
2019-01-09T06:17:31.807Z,53.12
2019-01-09T06:20:48.833Z,53.44
2019-01-09T06:23:56.840Z,53.88
2019-01-09T06:26:31.004Z,54.30
2019-01-09T06:29:23.176Z,54.58
2019-01-09T06:32:04.745Z,54.88
2019-01-09T06:34:38.536Z,54.66
2019-01-09T06:37:09.221Z,55.16
2019-01-09T06:40:06.139Z,55.29
2019-01-09T06:42:36.225Z,54.90
2019-01-09T06:45:07.003Z,54.59
2019-01-09T06:47:37.347Z,54.71
2019-01-09T06:50:11.727Z,55.24
2019-01-09T06:52:42.103Z,55.15
2019-01-09T06:55:16.543Z,54.43
2019-01-09T06:57:47.009Z,54.45
2019-01-09T07:00:20.830Z,54.50
2019-01-09T07:02:51.255Z,54.00
2019-01-09T07:05:21.640Z,54.10
2019-01-09T07:07:52.023Z,54.51
2019-01-09T07:10:22.367Z,54.60
2019-01-09T07:12:52.764Z,55.00
2019-01-09T07:15:23.166Z,54.11
2019-01-09T07:17:53.657Z,53.65
2019-01-09T07:20:24.439Z,53.73
2019-01-09T07:22:54.853Z,52.76
2019-01-09T07:25:25.269Z,52.57
2019-01-09T07:27:55.638Z,52.25
2019-01-09T07:30:26.039Z,52.16
2019-01-09T07:32:56.395Z,52.03
2019-01-09T07:35:26.918Z,52.18
2019-01-09T07:37:57.835Z,52.67
2019-01-09T07:40:28.207Z,52.48
2019-01-09T07:42:58.578Z,52.56
2019-01-09T07:45:28.971Z,52.77
2019-01-09T07:47:59.284Z,53.13
2019-01-09T07:50:29.691Z,53.39
2019-01-09T07:53:00.202Z,53.29
2019-01-09T07:55:30.790Z,53.80
2019-01-09T07:58:01.133Z,53.50
2019-01-09T08:00:31.523Z,53.79
2019-01-09T08:03:01.905Z,53.17
2019-01-09T08:05:32.270Z,52.17
2019-01-09T08:08:02.710Z,51.61
2019-01-09T08:10:33.094Z,51.35
2019-01-09T08:13:03.477Z,51.27
2019-01-09T08:15:33.933Z,51.16
2019-01-09T08:18:04.303Z,50.29
2019-01-09T08:20:34.602Z,50.20
2019-01-09T08:23:04.990Z,49.83
2019-01-09T08:25:35.514Z,50.09
2019-01-09T08:28:05.914Z,50.22
2019-01-09T08:30:36.295Z,50.74
2019-01-09T08:33:06.686Z,50.96
2019-01-09T08:35:37.058Z,50.97
2019-01-09T08:38:07.479Z,51.19
2019-01-09T08:40:38.044Z,49.75
2019-01-09T08:43:08.484Z,48.91
2019-01-09T08:45:38.884Z,48.97
2019-01-09T08:48:09.322Z,48.20
2019-01-09T08:50:40.050Z,48.05
2019-01-09T08:53:10.477Z,47.39
2019-01-09T08:55:41.229Z,47.61
2019-01-09T08:58:11.578Z,47.49
2019-01-09T09:00:42.135Z,47.37
2019-01-09T09:03:12.537Z,47.83
2019-01-09T09:05:42.907Z,47.44
2019-01-09T09:08:14.119Z,46.76
2019-01-09T09:10:44.467Z,45.95
2019-01-09T09:13:44.142Z,46.14
2019-01-09T09:16:14.523Z,46.14
2019-01-09T09:18:44.950Z,45.59
2019-01-09T09:21:17.888Z,44.74
2019-01-09T09:23:49.543Z,44.58
2019-01-09T09:26:27.423Z,43.75
2019-01-09T09:29:00.304Z,43.89
2019-01-09T09:31:32.157Z,44.13
2019-01-09T09:34:06.508Z,43.54
2019-01-09T09:36:37.910Z,43.46
2019-01-09T09:39:12.914Z,43.46
2019-01-09T09:41:44.393Z,43.79
2019-01-09T09:44:16.617Z,44.35
2019-01-09T09:46:47.995Z,44.35
2019-01-09T09:49:20.726Z,44.41
2019-01-09T09:51:51.740Z,44.41
2019-01-09T09:54:23.487Z,44.28
2019-01-09T09:56:53.927Z,44.28
2019-01-09T09:59:24.293Z,44.38
2019-01-09T10:01:54.891Z,44.07
2019-01-09T10:04:25.384Z,43.58
2019-01-09T10:06:55.818Z,43.58
2019-01-09T10:09:26.255Z,43.61
2019-01-09T10:11:56.727Z,43.00
2019-01-09T10:14:27.131Z,42.84
2019-01-09T10:16:57.616Z,42.84
2019-01-09T10:19:28.017Z,43.07
2019-01-09T10:21:58.384Z,43.22
2019-01-09T10:24:28.796Z,42.67
2019-01-09T10:26:59.182Z,42.67
2019-01-09T10:29:29.617Z,42.90
2019-01-09T10:32:00.081Z,42.60
2019-01-09T10:34:30.918Z,42.48
2019-01-09T10:37:01.312Z,42.65
2019-01-09T10:39:31.640Z,41.97
2019-01-09T10:42:02.143Z,41.88
2019-01-09T10:44:34.568Z,42.02
2019-01-09T10:47:04.812Z,42.03
2019-01-09T10:49:35.200Z,41.87
2019-01-09T10:52:05.727Z,41.72
2019-01-09T10:54:36.131Z,41.54
2019-01-09T10:57:06.675Z,42.17
2019-01-09T10:59:37.042Z,42.17
2019-01-09T11:02:07.403Z,41.89
2019-01-09T11:04:37.712Z,42.11
2019-01-09T11:07:08.558Z,42.13
2019-01-09T11:09:38.896Z,41.92
2019-01-09T11:12:09.387Z,41.89
2019-01-09T11:14:39.793Z,41.57
2019-01-09T11:17:10.253Z,41.72
2019-01-09T11:19:40.612Z,41.46
2019-01-09T11:22:10.994Z,41.39
2019-01-09T11:24:41.566Z,41.15
2019-01-09T11:27:11.997Z,41.23
2019-01-09T11:29:42.427Z,40.94
2019-01-09T11:32:12.819Z,40.84
2019-01-09T11:34:43.219Z,40.38
2019-01-09T11:37:13.621Z,40.39
2019-01-09T11:39:43.977Z,40.41
2019-01-09T11:42:14.356Z,40.57
2019-01-09T11:44:44.767Z,40.24
2019-01-09T11:47:15.173Z,40.25
2019-01-09T11:49:46.632Z,40.37
2019-01-09T11:52:17.067Z,40.31
2019-01-09T11:54:47.479Z,39.80
2019-01-09T11:57:17.875Z,39.63
2019-01-09T11:59:48.245Z,39.47
2019-01-09T12:02:22.224Z,39.06
2019-01-09T12:04:50.788Z,39.49
2019-01-09T12:07:21.138Z,39.32
2019-01-09T12:09:51.482Z,39.56
2019-01-09T12:12:21.868Z,39.26
2019-01-09T12:14:52.218Z,39.24
2019-01-09T12:17:22.566Z,38.83
2019-01-09T12:19:53.172Z,38.42
2019-01-09T12:22:23.740Z,38.37
2019-01-09T12:24:54.216Z,37.74
2019-01-09T12:27:24.582Z,38.15
2019-01-09T12:29:54.934Z,38.09
2019-01-09T12:32:25.405Z,38.25
2019-01-09T12:34:55.818Z,37.99
2019-01-09T12:37:26.303Z,37.63
2019-01-09T12:39:56.726Z,37.20
2019-01-09T12:42:30.463Z,36.39
2019-01-09T12:45:06.779Z,36.39
2019-01-09T12:47:37.087Z,36.38
2019-01-09T12:50:09.109Z,35.55
2019-01-09T12:52:39.637Z,35.72
2019-01-09T12:55:10.305Z,35.76
2019-01-09T12:57:40.706Z,35.88
2019-01-09T13:00:22.826Z,35.89
2019-01-09T13:02:53.241Z,36.12
2019-01-09T13:05:23.816Z,36.37
2019-01-09T13:07:54.241Z,36.76
2019-01-09T13:10:24.710Z,36.95
2019-01-09T13:12:55.098Z,37.24
2019-01-09T13:15:25.449Z,37.30
2019-01-09T13:17:55.953Z,37.42
2019-01-09T13:20:26.352Z,37.70
2019-01-09T13:22:56.777Z,37.67
2019-01-09T13:25:27.292Z,37.75
2019-01-09T13:27:57.685Z,37.81
2019-01-09T13:30:28.124Z,38.12
2019-01-09T13:32:58.460Z,37.69
2019-01-09T13:35:28.844Z,37.81
2019-01-09T13:37:59.215Z,37.73
2019-01-09T13:40:29.649Z,37.68
2019-01-09T13:42:59.991Z,37.98
2019-01-09T13:45:30.358Z,38.05
2019-01-09T13:48:00.784Z,38.26
2019-01-09T13:50:31.166Z,38.30
2019-01-09T13:53:01.562Z,38.57
2019-01-09T13:55:31.943Z,38.54
2019-01-09T13:58:02.357Z,39.07
2019-01-09T14:00:32.864Z,39.17
2019-01-09T14:03:03.284Z,39.40
2019-01-09T14:05:33.629Z,39.62
2019-01-09T14:08:04.421Z,39.75
2019-01-09T14:10:34.900Z,40.14
2019-01-09T14:13:05.354Z,40.30
2019-01-09T14:15:35.718Z,40.26
2019-01-09T14:18:06.166Z,40.25
2019-01-09T14:20:36.465Z,40.55
2019-01-09T14:23:07.089Z,40.70
2019-01-09T14:25:37.496Z,40.80
2019-01-09T14:28:07.881Z,40.88
2019-01-09T14:30:38.529Z,40.70
2019-01-09T14:33:08.967Z,40.91
2019-01-09T14:35:39.401Z,41.20
2019-01-09T14:38:09.844Z,41.57
2019-01-09T14:40:40.231Z,41.64
2019-01-09T14:43:10.541Z,41.73
2019-01-09T14:45:40.888Z,41.91
2019-01-09T14:48:11.304Z,42.41
2019-01-09T14:50:42.220Z,42.41
2019-01-09T14:53:12.879Z,43.08
2019-01-09T14:55:43.319Z,43.12
2019-01-09T14:58:13.715Z,43.30
2019-01-09T15:00:44.115Z,43.55
2019-01-09T15:03:14.476Z,43.82
2019-01-09T15:05:44.896Z,44.51
2019-01-09T15:08:15.192Z,44.51
2019-01-09T15:10:45.620Z,45.23
2019-01-09T15:13:16.016Z,45.23
2019-01-09T15:15:46.704Z,44.98
2019-01-09T15:18:17.059Z,44.90
2019-01-09T15:20:47.431Z,45.31
2019-01-09T15:23:17.810Z,45.48
2019-01-09T15:25:49.144Z,45.86
2019-01-09T15:28:19.620Z,45.86
2019-01-09T15:30:50.637Z,46.10
2019-01-09T15:33:21.123Z,46.31
2019-01-09T15:35:51.710Z,46.28
2019-01-09T15:38:22.087Z,46.47
2019-01-09T15:40:52.465Z,46.89
2019-01-09T15:43:22.815Z,46.75
2019-01-09T15:45:53.208Z,46.75
2019-01-09T15:48:23.541Z,47.11
2019-01-09T15:50:53.854Z,47.66
2019-01-09T15:53:24.215Z,47.89
2019-01-09T15:55:54.526Z,48.28
2019-01-09T15:58:24.923Z,48.28
2019-01-09T16:00:57.988Z,49.27
2019-01-09T16:03:28.407Z,49.28
2019-01-09T16:05:58.769Z,49.42
2019-01-09T16:08:29.117Z,49.93
2019-01-09T16:10:59.464Z,49.95
2019-01-09T16:13:29.809Z,49.95
2019-01-09T16:16:00.160Z,50.44
2019-01-09T16:18:30.491Z,50.44
2019-01-09T16:21:00.874Z,49.84
2019-01-09T16:23:31.244Z,49.84
2019-01-09T16:26:01.619Z,49.98
2019-01-09T16:28:31.990Z,49.99
2019-01-09T16:31:26.890Z,50.22
2019-01-09T16:33:57.223Z,49.49
2019-01-09T16:36:28.684Z,49.49
2019-01-09T16:38:59.088Z,49.86
2019-01-09T16:41:29.466Z,50.12
2019-01-09T16:43:59.772Z,49.88
2019-01-09T16:46:30.128Z,49.88
2019-01-09T16:49:00.467Z,49.75
2019-01-09T16:51:30.798Z,49.70
2019-01-09T16:54:01.174Z,49.71
2019-01-09T16:56:31.551Z,49.57
2019-01-09T16:59:01.891Z,49.68
2019-01-09T17:01:32.306Z,49.59
2019-01-09T17:04:04.959Z,49.63
2019-01-09T17:06:35.257Z,49.75
2019-01-09T17:09:08.697Z,49.75
2019-01-09T17:11:38.921Z,49.93
2019-01-09T17:14:09.263Z,49.93
2019-01-09T17:16:39.673Z,51.04
2019-01-09T17:19:10.255Z,51.04
2019-01-09T17:21:40.595Z,50.92
2019-01-09T17:24:10.932Z,51.63
2019-01-09T17:26:41.331Z,51.18
2019-01-09T17:29:11.708Z,51.18
2019-01-09T17:31:42.088Z,52.26
2019-01-09T17:34:12.498Z,52.26
2019-01-09T17:36:42.922Z,53.28
2019-01-09T17:39:13.307Z,53.75
2019-01-09T17:41:43.849Z,55.00
2019-01-09T17:44:14.195Z,54.86
2019-01-09T17:46:44.527Z,56.84
2019-01-09T17:49:14.876Z,57.21
2019-01-09T17:51:45.179Z,57.21
2019-01-09T17:54:15.558Z,57.69
2019-01-09T17:56:45.974Z,59.62
2019-01-09T17:59:16.240Z,59.62
2019-01-09T18:01:46.568Z,58.68
2019-01-09T18:04:17.086Z,58.85
2019-01-09T18:06:47.597Z,60.53
2019-01-09T18:09:17.929Z,60.53
2019-01-09T18:11:48.300Z,60.49
2019-01-09T18:14:18.998Z,60.49
2019-01-09T18:16:49.331Z,61.00
2019-01-09T18:19:19.712Z,61.50
2019-01-09T18:21:50.126Z,61.24
2019-01-09T18:24:20.500Z,61.25
2019-01-09T18:26:51.007Z,62.06
2019-01-09T18:29:21.345Z,62.45
2019-01-09T18:31:59.685Z,61.77
2019-01-09T18:34:37.666Z,62.30
2019-01-09T18:37:35.224Z,62.20
2019-01-09T18:41:07.341Z,63.05
2019-01-09T18:43:44.445Z,63.37
2019-01-09T18:46:52.238Z,62.82
2019-01-09T18:50:12.885Z,63.33
2019-01-09T18:52:51.378Z,63.56
2019-01-09T18:55:21.747Z,63.98
2019-01-09T18:57:52.089Z,63.48
2019-01-09T19:00:24.291Z,64.69
2019-01-09T19:02:54.758Z,64.27
2019-01-09T19:05:25.268Z,65.05
2019-01-09T19:07:55.642Z,64.88
2019-01-09T19:10:26.210Z,64.62
2019-01-09T19:12:56.635Z,65.17
2019-01-09T19:15:27.012Z,64.57
2019-01-09T19:17:57.390Z,64.56
2019-01-09T19:20:27.827Z,64.50
2019-01-09T19:22:58.232Z,64.81
2019-01-09T19:25:28.782Z,64.93
2019-01-09T19:27:59.124Z,64.66
2019-01-09T19:30:31.145Z,64.87
2019-01-09T19:33:01.800Z,64.67
2019-01-09T19:35:32.234Z,64.37
2019-01-09T19:38:02.591Z,64.34
2019-01-09T19:40:32.923Z,64.10
2019-01-09T19:43:03.219Z,64.60
2019-01-09T19:45:34.027Z,65.56
2019-01-09T19:48:04.768Z,65.68
2019-01-09T19:50:42.445Z,65.72
2019-01-09T19:53:07.503Z,65.83
2019-01-09T19:55:38.002Z,65.50
2019-01-09T19:58:08.475Z,65.45
2019-01-09T20:00:38.880Z,65.94
2019-01-09T20:03:09.312Z,65.64
2019-01-09T20:05:39.792Z,65.76
2019-01-09T20:08:10.299Z,66.32
2019-01-09T20:10:40.732Z,65.85
2019-01-09T20:13:11.112Z,66.08
2019-01-09T20:15:41.398Z,65.99
2019-01-09T20:18:11.974Z,66.22
2019-01-09T20:20:42.374Z,66.30
2019-01-09T20:23:12.805Z,67.35
2019-01-09T20:25:43.172Z,67.36
2019-01-09T20:28:13.570Z,66.94
2019-01-09T20:30:44.050Z,67.16
2019-01-09T20:33:14.346Z,66.82
2019-01-09T20:35:44.664Z,66.79
2019-01-09T20:38:15.120Z,66.79
2019-01-09T20:40:45.427Z,66.91
2019-01-09T20:43:15.773Z,66.63
2019-01-09T20:45:46.348Z,66.90
2019-01-09T20:48:16.746Z,66.27
2019-01-09T20:50:47.174Z,67.02
2019-01-09T20:53:17.641Z,66.91
2019-01-09T20:55:48.010Z,66.93
2019-01-09T20:58:18.499Z,67.48
2019-01-09T21:00:49.037Z,67.28
2019-01-09T21:03:19.418Z,67.36
2019-01-09T21:05:51.855Z,66.70
2019-01-09T21:08:22.264Z,66.72
2019-01-09T21:10:52.764Z,67.47
2019-01-09T21:13:23.370Z,67.09
2019-01-09T21:15:53.691Z,67.34
2019-01-09T21:18:23.987Z,67.23
2019-01-09T21:20:54.297Z,66.76
2019-01-09T21:23:24.679Z,67.48
2019-01-09T21:25:55.256Z,66.76
2019-01-09T21:28:25.597Z,66.97
2019-01-09T21:30:56.067Z,66.75
2019-01-09T21:33:26.375Z,66.25
2019-01-09T21:35:56.719Z,66.26
2019-01-09T21:38:27.114Z,65.80
2019-01-09T21:40:57.487Z,66.05
2019-01-09T21:43:27.812Z,66.53
2019-01-09T21:45:58.186Z,66.94
2019-01-09T21:48:28.587Z,67.29
2019-01-09T21:50:59.019Z,67.36
2019-01-09T21:53:29.430Z,67.00
2019-01-09T21:55:59.795Z,66.35
2019-01-09T21:58:30.175Z,66.92
2019-01-09T22:01:00.530Z,66.46
2019-01-09T22:03:30.934Z,67.03
2019-01-09T22:06:01.357Z,67.05
2019-01-09T22:08:31.693Z,67.54
2019-01-09T22:11:01.995Z,68.32
2019-01-09T22:13:32.384Z,68.43
2019-01-09T22:16:02.800Z,68.61
2019-01-09T22:18:33.278Z,68.60
2019-01-09T22:21:03.711Z,68.14
2019-01-09T22:23:34.141Z,67.86
2019-01-09T22:26:04.786Z,68.37
2019-01-09T22:28:35.114Z,68.26
2019-01-09T22:31:05.662Z,68.75
2019-01-09T22:33:35.994Z,68.76
2019-01-09T22:36:06.467Z,68.64
2019-01-09T22:38:36.807Z,68.78
2019-01-09T22:41:07.174Z,68.74
2019-01-09T22:43:37.477Z,68.31
2019-01-09T22:46:07.919Z,68.14
2019-01-09T22:48:38.257Z,67.94
2019-01-09T22:51:08.586Z,67.55
2019-01-09T22:53:39.008Z,68.25
2019-01-09T22:56:09.346Z,68.28
2019-01-09T22:58:39.818Z,68.38
2019-01-09T23:01:33.459Z,68.63
2019-01-09T23:04:06.364Z,67.91
2019-01-09T23:06:57.798Z,67.57
2019-01-09T23:09:48.266Z,68.37
2019-01-09T23:12:21.378Z,68.17
2019-01-09T23:14:51.396Z,67.83
2019-01-09T23:17:21.635Z,67.88
2019-01-09T23:19:51.908Z,67.73
2019-01-09T23:22:22.180Z,67.25
2019-01-09T23:24:52.750Z,67.25
2019-01-09T23:27:22.972Z,66.92
2019-01-09T23:29:53.241Z,67.45
2019-01-09T23:32:23.471Z,67.24
2019-01-09T23:34:53.736Z,67.03
2019-01-09T23:37:23.975Z,66.64
2019-01-09T23:39:54.345Z,66.85
2019-01-09T23:42:30.269Z,66.17
2019-01-09T23:44:56.547Z,66.63
2019-01-09T23:47:26.774Z,66.12
2019-01-09T23:49:57.046Z,65.95
2019-01-09T23:52:27.270Z,66.15
2019-01-09T23:54:57.544Z,65.89
2019-01-09T23:57:27.775Z,65.63
2019-01-09T23:59:58.015Z,64.84
